Terminal Aerodrome Forecast
Issued by NWS

Home | Current Version | Previous Version | Text Only | Print | Product List | Glossary On
Versions: 1 2 3 4 5 6 7 8 9 10 11 12
194
FTAK31 PAJN 250526
TAFAKT
TAF
PAKT 250526Z 2506/2606 VRB05KT P6SM VCFG SCT040
      TEMPO 2506/2510 5SM BR SCT005 SCT040
     FM251700 13005KT P6SM SCT040
     FM252100 16012KT P6SM BKN060
     FM260000 15012G20KT P6SM VCSH OVC060
      AMD LTD TO CLD VIS AND WIND 2506/2515=

USA.gov is the U.S. government's official web portal to all federal, state and local government web resources and services.